Погода Силванияна 2 недели

Гояс, Бразилия

18 - 31 июля
  • 18июля
    Сегодня
    +12°
    +28°
    Небольшая облачность
    ВремяПогодаТемператураВлажностьДавлениеВетер, м/сВероятность осадков
    00:00Ясно и безоблачно+16°C62 %688 мм2.4 м/с5 %
    03:00Ясно и безоблачно+15°C61 %687 мм1.4 м/с5 %
    06:00Облачно с прояснениями+13°C65 %687 мм0.6 м/с5 %
    09:00Облачно с прояснениями+18°C51 %690 мм1.5 м/с5 %
    12:00Небольшая облачность+25°C28 %690 мм3.2 м/с5 %
    15:00Небольшая облачность+27°C26 %689 мм2.7 м/с5 %
    18:00Небольшая облачность+24°C41 %688 мм2.2 м/с5 %
    21:00Ясно и безоблачно+21°C46 %689 мм2.5 м/с5 %
  • 19июля
    Пятница
    +13°
    +29°
    Ясно и безоблачно
    ВремяПогодаТемператураВлажностьДавлениеВетер, м/сВероятность осадков
    00:00Ясно и безоблачно+15°C61 %688 мм2.7 м/с5 %
    03:00Ясно и безоблачно+15°C57 %688 мм1.4 м/с5 %
    06:00Ясно и безоблачно+14°C64 %688 мм1.6 м/с5 %
    09:00Ясно и безоблачно+19°C48 %691 мм2.1 м/с5 %
    12:00Ясно и безоблачно+26°C33 %691 мм4.1 м/с5 %
    15:00Ясно и безоблачно+28°C29 %690 мм2.4 м/с5 %
    18:00Ясно и безоблачно+25°C42 %689 мм2.2 м/с5 %
    21:00Ясно и безоблачно+21°C48 %690 мм2.8 м/с5 %
  • 20июля
    Суббота
    +12°
    +28°
    Ясно и безоблачно
    ВремяПогодаТемператураВлажностьДавлениеВетер, м/сВероятность осадков
    00:00Ясно и безоблачно+16°C58 %689 мм2.6 м/с5 %
    03:00Ясно и безоблачно+15°C57 %688 мм1.3 м/с5 %
    06:00Ясно и безоблачно+13°C67 %687 мм2.4 м/с5 %
    09:00Ясно и безоблачно+19°C47 %691 мм2.5 м/с5 %
    12:00Ясно и безоблачно+26°C33 %691 мм3.6 м/с5 %
    15:00Ясно и безоблачно+28°C29 %689 мм2.8 м/с5 %
    18:00Ясно и безоблачно+24°C44 %688 мм2.2 м/с5 %
    21:00Ясно и безоблачно+20°C47 %689 мм2.7 м/с5 %
  • 21июля
    Воскресенье
    +12°
    +28°
    Ясно и безоблачно
    ВремяПогодаТемператураВлажностьДавлениеВетер, м/сВероятность осадков
    00:00Ясно и безоблачно+15°C59 %688 мм2.3 м/с5 %
    03:00Ясно и безоблачно+15°C59 %687 мм2.2 м/с5 %
    06:00Ясно и безоблачно+13°C73 %687 мм2.4 м/с5 %
    09:00Ясно и безоблачно+19°C51 %690 мм2.5 м/с5 %
    12:00Ясно и безоблачно+25°C34 %690 мм3.8 м/с5 %
    15:00Ясно и безоблачно+28°C30 %689 мм2.6 м/с5 %
    18:00Ясно и безоблачно+24°C37 %688 мм2.2 м/с5 %
    21:00Ясно и безоблачно+21°C47 %689 мм2.7 м/с5 %
  • 22июля
    Понедельник
    +12°
    +28°
    Ясно и безоблачно
    ВремяПогодаТемператураВлажностьДавлениеВетер, м/сВероятность осадков
    00:00Ясно и безоблачно+16°C60 %688 мм2.4 м/с5 %
    03:00Ясно и безоблачно+13°C69 %687 мм2.3 м/с5 %
    06:00Ясно и безоблачно+13°C68 %688 мм1.9 м/с5 %
    09:00Ясно и безоблачно+19°C48 %691 мм2.0 м/с5 %
    12:00Ясно и безоблачно+25°C28 %691 мм3.4 м/с5 %
    15:00Ясно и безоблачно+28°C25 %689 мм2.1 м/с5 %
    18:00Ясно и безоблачно+25°C31 %689 мм2.1 м/с5 %
    21:00Ясно и безоблачно+19°C42 %689 мм2.6 м/с5 %
Мы используем cookies
Соглашаюсь